Time,TemperatureF,DewpointF,PressureIn,WindDirection,WindDirectionDegrees,WindSpeedMPH,WindSpeedGustMPH,Humidity,HourlyPrecipIn,Conditions,Clouds,dailyrainin,SoftwareType,DateUTC
2013-06-25 00:02:00,61.0,56.0,29.93,SSE,150,0.0,0.0,85,0.00,,,0.00,,2013-06-25 07:02:00,
2013-06-25 00:43:00,60.0,56.0,29.93,SSE,150,0.0,0.0,88,0.00,,,0.00,,2013-06-25 07:43:00,
2013-06-25 00:52:00,60.0,56.0,29.93,SSE,150,0.0,0.0,88,0.00,,,0.00,,2013-06-25 07:52:00,
2013-06-25 01:01:00,59.0,56.0,29.93,SSE,150,0.0,0.0,89,0.00,,,0.00,,2013-06-25 08:01:00,
2013-06-25 01:11:00,59.0,56.0,29.93,SSE,150,0.0,0.0,89,0.00,,,0.00,,2013-06-25 08:11:00,
2013-06-25 01:52:00,59.0,56.0,29.93,SSE,150,0.0,0.0,89,0.00,,,0.00,,2013-06-25 08:52:00,
2013-06-25 02:01:00,59.0,56.0,29.93,SSE,150,0.0,0.0,89,0.00,,,0.00,,2013-06-25 09:01:00,
2013-06-25 02:12:00,59.0,55.0,29.93,SSE,150,0.0,0.0,88,0.00,,,0.00,,2013-06-25 09:12:00,
2013-06-25 02:21:00,59.0,55.0,29.93,SSE,150,0.0,0.0,88,0.00,,,0.00,,2013-06-25 09:21:00,
2013-06-25 02:52:00,59.0,56.0,29.93,SSE,150,0.0,0.0,89,0.00,,,0.00,,2013-06-25 09:52:00,
2013-06-25 03:01:00,59.0,56.0,29.93,SSE,150,0.0,1.0,89,0.00,,,0.00,,2013-06-25 10:01:00,
2013-06-25 03:11:00,58.0,55.0,29.93,SSE,150,0.0,1.0,89,0.00,,,0.00,,2013-06-25 10:11:00,
2013-06-25 03:33:00,58.0,55.0,29.93,SSE,150,0.0,0.0,90,0.00,,,0.00,,2013-06-25 10:33:00,
2013-06-25 03:42:00,58.0,55.0,29.93,SSE,150,0.0,0.0,90,0.00,,,0.00,,2013-06-25 10:42:00,
2013-06-25 03:52:00,58.0,55.0,29.93,SSE,150,0.0,0.0,89,0.00,,,0.00,,2013-06-25 10:52:00,
2013-06-25 04:01:00,58.0,55.0,29.93,SSE,150,0.0,0.0,90,0.00,,,0.00,,2013-06-25 11:01:00,
2013-06-25 04:11:00,58.0,55.0,29.94,SSE,150,0.0,0.0,90,0.00,,,0.00,,2013-06-25 11:11:00,
2013-06-25 04:21:00,58.0,55.0,29.94,SSE,150,0.0,0.0,91,0.00,,,0.00,,2013-06-25 11:21:00,
2013-06-25 04:34:00,57.0,55.0,29.94,SSE,150,0.0,0.0,92,0.00,,,0.00,,2013-06-25 11:34:00,
2013-06-25 04:43:00,57.0,55.0,29.94,SSE,150,0.0,0.0,92,0.00,,,0.00,,2013-06-25 11:43:00,
2013-06-25 04:52:00,57.0,55.0,29.94,SSE,150,0.0,0.0,92,0.00,,,0.00,,2013-06-25 11:52:00,
2013-06-25 05:01:00,57.0,55.0,29.94,SSE,150,0.0,0.0,92,0.00,,,0.00,,2013-06-25 12:01:00,
2013-06-25 05:11:00,57.0,55.0,29.94,SSE,150,0.0,0.0,92,0.00,,,0.00,,2013-06-25 12:11:00,
2013-06-25 05:43:00,57.0,55.0,29.95,SSE,150,0.0,0.0,93,0.00,,,0.00,,2013-06-25 12:43:00,
2013-06-25 05:55:00,57.0,55.0,29.95,SSE,150,2.0,5.0,93,0.00,,,0.00,,2013-06-25 12:55:00,
2013-06-25 06:01:00,57.0,55.0,29.95,SSE,150,1.0,5.0,93,0.00,,,0.00,,2013-06-25 13:01:00,
2013-06-25 06:34:00,58.0,56.0,29.95,SSE,150,0.0,1.0,93,0.00,,,0.00,,2013-06-25 13:34:00,
2013-06-25 06:53:00,58.0,56.0,29.95,SSE,150,0.0,0.0,93,0.00,,,0.00,,2013-06-25 13:53:00,
2013-06-25 07:53:00,63.0,58.0,29.96,SSE,151,0.0,0.0,85,0.00,,,0.00,,2013-06-25 14:53:00,
2013-06-25 08:01:00,63.0,57.0,29.96,SSE,150,0.0,0.0,82,0.00,,,0.00,,2013-06-25 15:01:00,
2013-06-25 08:11:00,64.0,58.0,29.96,SSE,150,0.0,1.0,81,0.00,,,0.00,,2013-06-25 15:11:00,
2013-06-25 08:53:00,67.0,59.0,29.98,SW,222,0.0,0.0,76,0.00,,,0.00,,2013-06-25 15:53:00,
2013-06-25 09:03:00,68.0,59.0,29.98,SW,223,0.0,1.0,74,0.00,,,0.00,,2013-06-25 16:03:00,
2013-06-25 09:12:00,69.0,60.0,29.97,SW,223,0.0,1.0,72,0.00,,,0.00,,2013-06-25 16:12:00,
2013-06-25 09:34:00,71.0,60.0,29.98,SW,227,0.0,3.0,68,0.00,,,0.00,,2013-06-25 16:34:00,
2013-06-25 09:43:00,72.0,60.0,29.97,SW,234,4.0,7.0,66,0.00,,,0.00,,2013-06-25 16:43:00,
2013-06-25 09:52:00,73.0,61.0,29.97,WSW,252,3.0,7.0,65,0.00,,,0.00,,2013-06-25 16:52:00,
2013-06-25 10:01:00,74.0,61.0,29.97,SW,220,1.0,7.0,65,0.00,,,0.00,,2013-06-25 17:01:00,
2013-06-25 10:11:00,74.0,61.0,29.98,WSW,250,2.0,7.0,64,0.00,,,0.00,,2013-06-25 17:11:00,
2013-06-25 10:22:00,74.0,61.0,29.98,West,277,4.0,9.0,65,0.00,,,0.00,,2013-06-25 17:22:00,
2013-06-25 10:43:00,75.0,61.0,29.97,WSW,245,3.0,8.0,62,0.00,,,0.00,,2013-06-25 17:43:00,
2013-06-25 10:53:00,76.0,62.0,29.97,SW,219,3.0,9.0,63,0.00,,,0.00,,2013-06-25 17:53:00,
2013-06-25 11:02:00,76.0,62.0,29.97,SSW,211,5.0,11.0,61,0.00,,,0.00,,2013-06-25 18:02:00,
2013-06-25 11:12:00,76.0,62.0,29.97,WSW,254,4.0,10.0,61,0.00,,,0.00,,2013-06-25 18:12:00,
2013-06-25 11:33:00,78.0,62.0,29.97,WSW,245,4.0,9.0,58,0.00,,,0.00,,2013-06-25 18:33:00,
2013-06-25 11:44:00,78.0,61.0,29.97,SW,222,2.0,9.0,56,0.00,,,0.00,,2013-06-25 18:44:00,
2013-06-25 11:52:00,78.0,62.0,29.98,SW,234,2.0,9.0,57,0.00,,,0.00,,2013-06-25 18:52:00,
2013-06-25 12:01:00,79.0,61.0,29.98,SSE,148,4.0,8.0,55,0.00,,,0.00,,2013-06-25 19:01:00,
2013-06-25 12:44:00,80.0,61.0,29.98,West,272,0.0,9.0,53,0.00,,,0.00,,2013-06-25 19:44:00,
2013-06-25 12:53:00,81.0,62.0,29.98,WSW,238,0.0,9.0,52,0.00,,,0.00,,2013-06-25 19:53:00,
2013-06-25 13:01:00,81.0,61.0,29.98,WSW,241,2.0,9.0,51,0.00,,,0.00,,2013-06-25 20:01:00,
2013-06-25 13:21:00,81.0,61.0,29.97,SW,231,2.0,4.0,51,0.00,,,0.00,,2013-06-25 20:21:00,
2013-06-25 13:52:00,81.0,61.0,29.97,WSW,258,3.0,7.0,51,0.00,,,0.00,,2013-06-25 20:52:00,
2013-06-25 14:01:00,81.0,61.0,29.97,NNW,333,0.0,7.0,51,0.00,,,0.00,,2013-06-25 21:01:00,
2013-06-25 14:22:00,80.0,61.0,29.96,West,276,0.0,8.0,53,0.00,,,0.00,,2013-06-25 21:22:00,
2013-06-25 14:33:00,80.0,61.0,29.96,SSW,213,4.0,9.0,52,0.00,,,0.00,,2013-06-25 21:33:00,
2013-06-25 14:43:00,81.0,62.0,29.97,West,261,2.0,5.0,52,0.00,,,0.00,,2013-06-25 21:43:00,
2013-06-25 14:53:00,82.0,61.0,29.96,SE,132,1.0,4.0,50,0.00,,,0.00,,2013-06-25 21:53:00,
2013-06-25 15:01:00,80.0,61.0,29.96,SE,136,2.0,8.0,52,0.00,,,0.00,,2013-06-25 22:01:00,
2013-06-25 15:11:00,79.0,60.0,29.96,SSW,195,1.0,8.0,53,0.00,,,0.00,,2013-06-25 22:11:00,
2013-06-25 15:22:00,79.0,61.0,29.96,South,189,2.0,6.0,55,0.00,,,0.00,,2013-06-25 22:22:00,
2013-06-25 15:33:00,80.0,61.0,29.95,WSW,240,1.0,6.0,53,0.00,,,0.00,,2013-06-25 22:33:00,
2013-06-25 15:42:00,80.0,61.0,29.95,South,179,3.0,6.0,52,0.00,,,0.00,,2013-06-25 22:42:00,
2013-06-25 15:52:00,80.0,61.0,29.95,West,264,4.0,8.0,52,0.00,,,0.00,,2013-06-25 22:52:00,
2013-06-25 16:01:00,80.0,61.0,29.94,WSW,248,4.0,9.0,53,0.00,,,0.00,,2013-06-25 23:01:00,
2013-06-25 16:11:00,80.0,61.0,29.94,WSW,237,2.0,9.0,53,0.00,,,0.00,,2013-06-25 23:11:00,
2013-06-25 16:34:00,80.0,61.0,29.93,SW,230,3.0,11.0,53,0.00,,,0.00,,2013-06-25 23:34:00,
2013-06-25 16:43:00,80.0,61.0,29.93,SSW,212,2.0,9.0,53,0.00,,,0.00,,2013-06-25 23:43:00,
2013-06-25 16:52:00,80.0,61.0,29.92,South,170,1.0,8.0,53,0.00,,,0.00,,2013-06-25 23:52:00,
2013-06-25 18:32:00,81.0,61.0,29.89,WSW,242,0.0,1.0,51,0.00,,,0.00,,2013-06-26 01:32:00,
2013-06-25 18:43:00,82.0,61.0,29.89,WSW,242,0.0,4.0,50,0.00,,,0.00,,2013-06-26 01:43:00,
2013-06-25 18:52:00,82.0,61.0,29.88,WSW,248,2.0,7.0,50,0.00,,,0.00,,2013-06-26 01:52:00,
2013-06-25 19:01:00,81.0,61.0,29.89,WSW,254,2.0,5.0,51,0.00,,,0.00,,2013-06-26 02:01:00,
2013-06-25 19:11:00,81.0,61.0,29.89,WSW,246,0.0,5.0,51,0.00,,,0.00,,2013-06-26 02:11:00,
2013-06-25 19:34:00,79.0,60.0,29.89,South,189,0.0,3.0,53,0.00,,,0.00,,2013-06-26 02:34:00,
2013-06-25 19:43:00,78.0,60.0,29.89,South,191,0.0,1.0,54,0.00,,,0.00,,2013-06-26 02:43:00,
2013-06-25 19:53:00,78.0,61.0,29.89,SSW,194,1.0,4.0,55,0.00,,,0.00,,2013-06-26 02:53:00,
2013-06-25 20:01:00,77.0,61.0,29.89,SSW,194,0.0,1.0,57,0.00,,,0.00,,2013-06-26 03:01:00,
2013-06-25 20:11:00,75.0,60.0,29.90,SSW,194,0.0,4.0,59,0.00,,,0.00,,2013-06-26 03:11:00,
2013-06-25 20:22:00,73.0,59.0,29.90,SSW,194,0.0,0.0,62,0.00,,,0.00,,2013-06-26 03:22:00,
2013-06-25 20:33:00,72.0,60.0,29.90,SSW,194,0.0,0.0,65,0.00,,,0.00,,2013-06-26 03:33:00,
2013-06-25 20:43:00,71.0,59.0,29.90,SSW,194,0.0,4.0,67,0.00,,,0.00,,2013-06-26 03:43:00,
2013-06-25 20:52:00,70.0,59.0,29.90,SSW,194,0.0,0.0,68,0.00,,,0.00,,2013-06-26 03:52:00,
2013-06-25 21:01:00,69.0,59.0,29.91,SSW,194,0.0,0.0,71,0.00,,,0.00,,2013-06-26 04:01:00,
2013-06-25 21:11:00,68.0,59.0,29.91,SSW,194,0.0,0.0,73,0.00,,,0.00,,2013-06-26 04:11:00,
2013-06-25 21:21:00,68.0,59.0,29.91,SSW,194,0.0,0.0,73,0.00,,,0.00,,2013-06-26 04:21:00,
2013-06-25 21:33:00,68.0,59.0,29.91,SSW,194,0.0,0.0,73,0.00,,,0.00,,2013-06-26 04:33:00,
2013-06-25 21:43:00,68.0,59.0,29.91,SSW,194,0.0,0.0,73,0.00,,,0.00,,2013-06-26 04:43:00,
2013-06-25 21:53:00,68.0,59.0,29.91,SSW,194,0.0,0.0,74,0.00,,,0.00,,2013-06-26 04:53:00,
2013-06-25 22:02:00,68.0,60.0,29.91,SSW,194,0.0,0.0,76,0.00,,,0.00,,2013-06-26 05:02:00,
2013-06-25 22:11:00,68.0,60.0,29.91,SSW,194,0.0,0.0,76,0.00,,,0.00,,2013-06-26 05:11:00,
2013-06-25 22:21:00,68.0,60.0,29.91,SSW,194,0.0,0.0,75,0.00,,,0.00,,2013-06-26 05:21:00,
2013-06-25 22:33:00,68.0,60.0,29.91,SSW,194,0.0,0.0,75,0.00,,,0.00,,2013-06-26 05:33:00,
2013-06-25 22:43:00,67.0,59.0,29.91,SSW,194,0.0,0.0,76,0.00,,,0.00,,2013-06-26 05:43:00,
2013-06-25 22:52:00,67.0,59.0,29.92,SSW,194,0.0,0.0,76,0.00,,,0.00,,2013-06-26 05:52:00,
2013-06-25 23:01:00,67.0,59.0,29.92,SSW,194,0.0,0.0,76,0.00,,,0.00,,2013-06-26 06:01:00,
2013-06-25 23:11:00,67.0,59.0,29.92,SSW,194,0.0,0.0,76,0.00,,,0.00,,2013-06-26 06:11:00,
2013-06-25 23:22:00,67.0,59.0,29.92,SSW,194,0.0,0.0,76,0.00,,,0.00,,2013-06-26 06:22:00,
2013-06-25 23:34:00,67.0,59.0,29.91,SSW,194,0.0,0.0,76,0.00,,,0.00,,2013-06-26 06:34:00,
2013-06-25 23:43:00,67.0,59.0,29.91,SSW,194,0.0,0.0,76,0.00,,,0.00,,2013-06-26 06:43:00,
2013-06-25 23:53:00,67.0,60.0,29.92,SSW,194,0.0,0.0,77,0.00,,,0.00,,2013-06-26 06:53:00,